Time;durP1;ratioP1;P1;durP2;ratioP2;P2;SDS_P1;SDS_P2;PMS_P1;PMS_P2;Temp;Humidity;BMP_temperature;BMP_pressure;BME280_temperature;BME280_humidity;BME280_pressure;Samples;Min_cycle;Max_cycle;Signal;HPM_P1;HPM_P2
2022/07/18 00:01:44;;;;;;;4.97;4.47;;;;;;;14.89;85.05;102620.34;5068202;28;20227;-71
2022/07/18 00:04:10;;;;;;;5.17;3.90;;;;;;;14.87;85.29;102615.13;5063012;28;20196;-71
2022/07/18 00:06:35;;;;;;;5.97;4.13;;;;;;;14.94;85.54;102613.63;5060537;28;20217;-71
2022/07/18 00:09:02;;;;;;;5.23;4.07;;;;;;;14.90;85.95;102604.91;5063527;28;20204;-71
2022/07/18 00:11:27;;;;;;;5.53;3.60;;;;;;;14.74;85.93;102602.69;5061696;28;20825;-70
2022/07/18 00:13:53;;;;;;;4.53;3.87;;;;;;;14.81;85.74;102594.31;5050279;28;20205;-71
2022/07/18 00:16:18;;;;;;;6.53;3.90;;;;;;;14.77;85.23;102597.63;5051433;28;20660;-70
2022/07/18 00:18:45;;;;;;;5.40;4.40;;;;;;;14.73;85.60;102595.78;5059802;28;20631;-71
2022/07/18 00:21:10;;;;;;;5.60;4.17;;;;;;;14.67;85.73;102592.13;5083232;28;20223;-70
2022/07/18 00:23:36;;;;;;;6.13;4.30;;;;;;;14.63;85.81;102593.75;5068654;28;20193;-71
2022/07/18 00:26:02;;;;;;;4.57;3.90;;;;;;;14.66;85.71;102586.13;5081725;28;20248;-70
2022/07/18 00:28:28;;;;;;;5.97;4.07;;;;;;;14.62;86.66;102579.13;5067489;28;20601;-70
2022/07/18 00:30:53;;;;;;;5.00;4.50;;;;;;;14.57;86.92;102579.78;5063519;28;20226;-70
2022/07/18 00:33:19;;;;;;;6.37;4.43;;;;;;;14.57;86.79;102578.09;5059668;28;20185;-71
2022/07/18 00:35:44;;;;;;;6.30;4.43;;;;;;;14.54;87.11;102577.16;5068509;28;20204;-70
2022/07/18 00:38:10;;;;;;;5.67;5.07;;;;;;;14.45;87.29;102575.13;5068203;28;20295;-71
2022/07/18 00:40:35;;;;;;;5.30;4.80;;;;;;;14.53;87.06;102573.69;5043553;28;20818;-71
2022/07/18 00:43:01;;;;;;;7.17;4.83;;;;;;;14.52;87.34;102578.78;5068920;28;20222;-71
2022/07/18 00:45:27;;;;;;;5.57;4.93;;;;;;;14.44;87.04;102575.06;5067651;28;20191;-71
2022/07/18 00:47:52;;;;;;;5.90;4.93;;;;;;;14.36;87.78;102574.84;5071590;28;20189;-70
2022/07/18 00:50:23;;;;;;;7.57;5.23;;;;;;;14.39;87.64;102582.69;5067696;28;20188;-70
2022/07/18 00:52:49;;;;;;;5.43;4.93;;;;;;;14.47;87.57;102578.66;5069137;28;20189;-70
2022/07/18 00:55:15;;;;;;;7.37;5.57;;;;;;;14.40;88.05;102584.44;5051155;28;20612;-70
2022/07/18 00:57:42;;;;;;;6.93;5.80;;;;;;;14.33;88.75;102579.91;5052865;28;20185;-70
2022/07/18 01:02:56;;;;;;;7.57;6.07;;;;;;;14.39;88.41;102567.22;5071904;28;20177;-70
2022/07/18 01:05:21;;;;;;;8.00;6.40;;;;;;;14.33;88.26;102569.63;5068551;28;20650;-70
2022/07/18 01:07:47;;;;;;;8.53;6.50;;;;;;;14.36;88.20;102571.41;5059500;28;20192;-70
2022/07/18 01:10:12;;;;;;;7.07;6.27;;;;;;;14.30;88.06;102578.91;5072738;28;20212;-70
2022/07/18 01:12:38;;;;;;;7.70;6.90;;;;;;;14.26;88.67;102595.09;5067637;28;20249;-70
2022/07/18 01:15:05;;;;;;;7.30;6.60;;;;;;;14.24;88.56;102582.19;5073574;28;20213;-71
2022/07/18 01:17:30;;;;;;;8.40;6.87;;;;;;;14.21;88.32;102592.41;5057974;28;20205;-70
2022/07/18 01:19:56;;;;;;;8.27;6.60;;;;;;;14.22;88.08;102580.41;5072273;28;20235;-70
2022/07/18 01:22:22;;;;;;;9.07;6.90;;;;;;;14.14;88.28;102574.06;5071297;28;20199;-70
2022/07/18 01:24:48;;;;;;;8.33;6.87;;;;;;;14.14;88.25;102577.50;5072653;28;20185;-70
2022/07/18 01:27:19;;;;;;;8.40;6.50;;;;;;;14.12;88.89;102583.44;5072889;28;20190;-70
2022/07/18 01:29:46;;;;;;;8.60;6.80;;;;;;;14.10;88.35;102567.97;5072350;28;20204;-70
2022/07/18 01:32:13;;;;;;;9.27;7.13;;;;;;;14.08;89.08;102576.47;5066862;28;20271;-70
2022/07/18 01:34:39;;;;;;;8.33;7.50;;;;;;;14.02;89.46;102577.13;5072292;28;20594;-70
2022/07/18 01:37:06;;;;;;;11.50;7.60;;;;;;;14.10;89.74;102567.97;5057563;28;20241;-70
2022/07/18 01:39:32;;;;;;;9.83;8.20;;;;;;;14.06;89.18;102575.53;5072149;28;20911;-70
2022/07/18 01:42:00;;;;;;;8.97;6.97;;;;;;;14.04;88.93;102579.75;5087701;28;20191;-71
2022/07/18 01:44:27;;;;;;;8.43;7.63;;;;;;;13.92;88.65;102574.19;5082738;28;20700;-70
2022/07/18 01:46:53;;;;;;;10.87;8.23;;;;;;;13.93;88.91;102578.50;5034506;28;20606;-70
2022/07/18 01:49:19;;;;;;;8.53;7.67;;;;;;;13.96;89.08;102566.63;5080226;28;20217;-70
2022/07/18 01:51:50;;;;;;;8.83;7.43;;;;;;;13.91;89.26;102575.88;5070838;28;20220;-70
2022/07/18 01:54:16;;;;;;;10.37;7.40;;;;;;;13.84;89.84;102571.34;5087612;28;20209;-70
2022/07/18 01:56:41;;;;;;;10.37;7.70;;;;;;;13.81;89.86;102575.53;5047151;28;20190;-70
2022/07/18 01:59:07;;;;;;;8.47;7.47;;;;;;;13.84;89.88;102576.50;5066720;28;20200;-70
2022/07/18 02:01:33;;;;;;;8.30;7.50;;;;;;;13.86;90.28;102561.13;5072070;28;20279;-70
2022/07/18 02:03:58;;;;;;;9.53;7.43;;;;;;;13.91;89.65;102560.41;5087457;28;20213;-70
2022/07/18 02:06:24;;;;;;;9.37;7.53;;;;;;;13.91;90.07;102567.28;5066398;28;20822;-70
2022/07/18 02:08:49;;;;;;;10.90;7.20;;;;;;;13.86;90.58;102571.41;5071588;28;20208;-70
2022/07/18 02:11:14;;;;;;;9.07;8.10;;;;;;;13.79;90.21;102569.44;5087505;28;20208;-70
2022/07/18 02:13:40;;;;;;;9.30;8.30;;;;;;;13.76;89.73;102572.78;5071831;28;20177;-70
2022/07/18 02:16:06;;;;;;;11.27;7.80;;;;;;;13.75;89.57;102568.47;5066141;28;20190;-70
2022/07/18 02:18:32;;;;;;;12.87;7.80;;;;;;;13.70;89.21;102569.13;5068446;28;20215;-70
2022/07/18 02:21:02;;;;;;;10.03;7.67;;;;;;;13.57;89.93;102565.25;5070430;28;20272;-70
2022/07/18 02:23:27;;;;;;;10.20;7.60;;;;;;;13.59;90.29;102562.75;5071703;28;20649;-70
2022/07/18 02:25:53;;;;;;;11.50;8.57;;;;;;;13.56;89.84;102557.47;5071659;28;20176;-71
2022/07/18 02:28:19;;;;;;;11.53;8.00;;;;;;;13.51;90.25;102554.75;5037658;28;20215;-70
2022/07/18 02:30:45;;;;;;;11.20;7.23;;;;;;;13.49;90.71;102553.81;5071544;28;20600;-70
2022/07/18 02:33:10;;;;;;;8.83;7.93;;;;;;;13.49;90.36;102558.09;5053383;28;20188;-70
2022/07/18 02:35:36;;;;;;;8.80;7.30;;;;;;;13.52;90.05;102559.06;5069880;28;20205;-70
2022/07/18 02:38:01;;;;;;;9.73;7.77;;;;;;;13.57;90.44;102554.06;5061980;28;20246;-71
2022/07/18 02:40:27;;;;;;;9.47;8.40;;;;;;;13.60;91.17;102552.50;5064809;28;20724;-70
2022/07/18 02:42:52;;;;;;;10.53;8.27;;;;;;;13.60;91.45;102542.22;5050382;28;20189;-70
2022/07/18 02:45:18;;;;;;;8.67;7.77;;;;;;;13.61;91.11;102546.53;5071188;28;20189;-70
2022/07/18 02:47:43;;;;;;;9.30;7.53;;;;;;;13.56;91.33;102553.22;5070879;28;20185;-70
2022/07/18 02:50:09;;;;;;;9.07;7.37;;;;;;;13.50;91.62;102540.16;5070984;28;20215;-71
2022/07/18 02:52:35;;;;;;;11.40;7.60;;;;;;;13.51;91.45;102541.88;5071096;28;20189;-70
2022/07/18 02:55:01;;;;;;;9.63;7.93;;;;;;;13.57;90.86;102538.63;5086417;28;20712;-72
2022/07/18 02:57:27;;;;;;;11.93;7.27;;;;;;;13.59;90.36;102543.03;5070851;28;20187;-70
2022/07/18 02:59:53;;;;;;;10.73;8.13;;;;;;;13.60;90.90;102546.47;5071047;28;20220;-71
2022/07/18 03:02:18;;;;;;;9.07;8.10;;;;;;;13.61;91.07;102549.09;5078654;28;20193;-70
2022/07/18 03:04:44;;;;;;;9.80;8.67;;;;;;;13.60;90.89;102547.34;5070786;28;20177;-72
2022/07/18 03:07:09;;;;;;;8.93;7.57;;;;;;;13.62;91.02;102555.13;5070410;28;20177;-73
2022/07/18 03:09:35;;;;;;;9.37;7.80;;;;;;;13.58;90.75;102545.56;5070668;28;20205;-71
2022/07/18 03:12:01;;;;;;;8.10;7.27;;;;;;;13.51;91.67;102552.19;5070625;28;20185;-72
2022/07/18 03:14:26;;;;;;;8.87;7.90;;;;;;;13.53;91.33;102557.41;5070616;28;20209;-72
2022/07/18 03:16:52;;;;;;;11.20;7.93;;;;;;;13.53;91.75;102552.25;5070153;28;20576;-71
2022/07/18 03:19:17;;;;;;;10.57;8.63;;;;;;;13.49;91.71;102558.09;5070392;28;20610;-72
2022/07/18 03:21:43;;;;;;;10.43;8.20;;;;;;;13.47;91.83;102555.47;5070473;28;20188;-72
2022/07/18 03:24:10;;;;;;;12.17;8.13;;;;;;;13.48;91.60;102546.91;5070357;28;20193;-72
2022/07/18 03:26:37;;;;;;;10.47;7.50;;;;;;;13.53;90.83;102549.66;5070290;28;20285;-71
2022/07/18 03:29:03;;;;;;;9.70;8.70;;;;;;;13.49;91.28;102547.81;5076248;28;20209;-72
2022/07/18 03:31:28;;;;;;;13.43;8.17;;;;;;;13.49;91.04;102543.50;5084289;28;20192;-72
2022/07/18 03:33:54;;;;;;;10.13;7.93;;;;;;;13.47;91.24;102552.00;5090693;28;20181;-72
2022/07/18 03:36:19;;;;;;;9.93;7.77;;;;;;;13.46;91.57;102545.13;5082302;28;20565;-72
2022/07/18 03:38:45;;;;;;;8.77;7.87;;;;;;;13.44;91.76;102555.34;5069980;28;20266;-72
2022/07/18 03:41:11;;;;;;;11.13;8.00;;;;;;;13.45;91.34;102558.81;5070493;28;20216;-72
2022/07/18 03:43:40;;;;;;;10.33;8.30;;;;;;;13.43;91.56;102565.59;5085783;28;20322;-72
2022/07/18 03:46:06;;;;;;;10.07;8.20;;;;;;;13.42;91.35;102562.16;5070035;28;20181;-72
2022/07/18 03:48:32;;;;;;;9.37;7.50;;;;;;;13.47;91.36;102558.03;5069679;28;20215;-72
2022/07/18 03:50:58;;;;;;;8.33;7.53;;;;;;;13.44;91.95;102554.50;5069915;28;20181;-72
2022/07/18 03:53:24;;;;;;;11.27;8.37;;;;;;;13.43;92.29;102543.31;5051996;28;20181;-72
2022/07/18 03:55:49;;;;;;;9.60;8.10;;;;;;;13.47;92.01;102546.88;5069835;28;20219;-72
2022/07/18 03:58:15;;;;;;;9.50;8.43;;;;;;;13.54;91.88;102538.53;5069543;28;20583;-72
2022/07/18 04:00:40;;;;;;;10.30;7.97;;;;;;;13.57;92.05;102524.06;5069641;28;20212;-72
2022/07/18 04:03:06;;;;;;;11.30;8.37;;;;;;;13.60;91.64;102520.72;5069628;28;20177;-72
2022/07/18 04:05:32;;;;;;;11.37;7.50;;;;;;;13.63;92.25;102520.84;5085268;28;20177;-71
2022/07/18 04:07:58;;;;;;;11.00;8.27;;;;;;;13.65;91.77;102525.22;5069366;28;20189;-72
2022/07/18 04:10:23;;;;;;;10.67;8.43;;;;;;;13.66;91.93;102529.53;5069623;28;20177;-72
2022/07/18 04:12:52;;;;;;;10.27;8.13;;;;;;;13.73;91.79;102534.09;5076650;28;20193;-71
2022/07/18 04:15:19;;;;;;;9.20;8.27;;;;;;;13.74;91.60;102530.69;5067985;28;20741;-71
2022/07/18 04:17:45;;;;;;;9.57;7.63;;;;;;;13.77;91.68;102535.06;5069219;28;20184;-71
2022/07/18 04:20:11;;;;;;;10.23;7.50;;;;;;;13.80;91.13;102536.03;5051482;28;20270;-72
2022/07/18 04:22:57;;;;;;;10.40;8.30;;;;;;;13.83;91.06;102536.13;5069701;28;20189;-72
2022/07/18 04:25:26;;;;;;;8.17;6.97;;;;;;;13.82;91.32;102548.97;5068085;28;20192;-72
2022/07/18 04:27:52;;;;;;;10.97;7.50;;;;;;;13.79;91.18;102544.59;5069319;28;20188;-72
2022/07/18 04:30:21;;;;;;;7.93;7.13;;;;;;;13.87;90.94;102544.84;5063081;28;20218;-72
2022/07/18 04:32:47;;;;;;;8.30;7.13;;;;;;;13.90;91.20;102534.66;5104979;28;20235;-72
2022/07/18 04:35:12;;;;;;;10.23;7.47;;;;;;;13.92;91.15;102530.41;5105219;28;20215;-71
2022/07/18 04:37:39;;;;;;;9.00;6.90;;;;;;;13.98;90.29;102520.28;5085779;28;20212;-72
2022/07/18 04:40:06;;;;;;;8.97;8.07;;;;;;;14.04;90.75;102520.50;5068525;28;20715;-72
2022/07/18 04:42:31;;;;;;;10.53;7.70;;;;;;;14.06;90.32;102527.47;5069484;28;20225;-72
2022/07/18 04:44:58;;;;;;;8.47;7.37;;;;;;;14.12;90.51;102521.59;5084921;28;20215;-72
2022/07/18 04:47:23;;;;;;;8.83;7.83;;;;;;;14.12;90.30;102516.47;5050973;28;20268;-71
2022/07/18 04:49:49;;;;;;;8.60;7.60;;;;;;;14.13;90.73;102521.66;5068312;28;20815;-71
2022/07/18 04:52:14;;;;;;;8.30;7.50;;;;;;;14.13;90.48;102520.81;5068756;28;20557;-70
2022/07/18 04:54:40;;;;;;;8.90;7.93;;;;;;;14.13;90.56;102513.09;5046493;28;20209;-70
2022/07/18 04:57:05;;;;;;;10.07;7.43;;;;;;;14.15;90.49;102511.41;5084782;28;20258;-71
2022/07/18 04:59:31;;;;;;;8.77;7.20;;;;;;;14.18;90.30;102507.22;5105139;28;20300;-71
2022/07/18 05:01:57;;;;;;;8.43;7.10;;;;;;;14.21;89.94;102502.22;5049109;28;20217;-71
2022/07/18 05:04:23;;;;;;;8.20;7.17;;;;;;;14.26;90.30;102503.22;5031334;28;20196;-71
2022/07/18 05:06:48;;;;;;;8.17;7.37;;;;;;;14.34;90.06;102498.31;5049203;28;20706;-71
2022/07/18 05:09:13;;;;;;;8.90;6.93;;;;;;;14.42;88.90;102508.03;5049413;28;20202;-71
2022/07/18 05:11:39;;;;;;;8.20;6.87;;;;;;;14.53;88.82;102513.50;5049548;28;20182;-71
2022/07/18 05:14:05;;;;;;;10.93;7.10;;;;;;;14.58;87.61;102510.25;5063086;28;20210;-71
2022/07/18 05:16:31;;;;;;;8.93;7.30;;;;;;;14.68;87.41;102513.97;5061627;28;20665;-71
2022/07/18 05:18:56;;;;;;;10.57;7.03;;;;;;;14.86;87.60;102517.06;5046259;28;20224;-71
2022/07/18 05:21:22;;;;;;;8.37;6.90;;;;;;;15.01;86.71;102513.22;5049325;28;20857;-71
2022/07/18 05:23:47;;;;;;;11.60;7.20;;;;;;;15.18;85.79;102503.34;5067620;28;20181;-71
2022/07/18 05:26:13;;;;;;;10.17;7.20;;;;;;;15.40;85.03;102506.63;5067760;28;20209;-71
2022/07/18 05:28:38;;;;;;;8.23;6.53;;;;;;;15.51;84.52;102505.16;5068525;28;20583;-71
2022/07/18 05:31:04;;;;;;;9.00;6.63;;;;;;;15.52;84.99;102498.31;5050047;28;20268;-71
2022/07/18 05:33:29;;;;;;;8.93;7.50;;;;;;;15.71;83.83;102497.94;5066474;28;20349;-71
2022/07/18 05:35:55;;;;;;;8.00;6.83;;;;;;;15.74;83.53;102496.31;5049007;28;20214;-71
2022/07/18 05:38:20;;;;;;;11.17;6.43;;;;;;;15.78;83.31;102492.06;5063670;28;20208;-70
2022/07/18 05:40:46;;;;;;;7.53;6.33;;;;;;;15.73;83.20;102498.84;5049185;28;20887;-71
2022/07/18 05:43:11;;;;;;;9.27;6.73;;;;;;;15.76;83.28;102502.41;5049969;28;20194;-71
2022/07/18 05:45:37;;;;;;;9.17;6.70;;;;;;;15.85;83.63;102502.63;5052360;28;20323;-71
2022/07/18 05:48:03;;;;;;;7.67;6.47;;;;;;;15.94;83.33;102505.41;5065707;28;20197;-71
2022/07/18 05:50:28;;;;;;;9.37;6.70;;;;;;;16.02;82.44;102505.63;5083816;28;20242;-71
2022/07/18 05:52:54;;;;;;;9.27;6.57;;;;;;;16.07;81.84;102510.03;5046921;28;20656;-71
2022/07/18 05:55:20;;;;;;;8.27;6.80;;;;;;;16.11;82.84;102511.00;5052181;28;20216;-71
2022/07/18 05:57:46;;;;;;;8.37;6.60;;;;;;;16.08;82.49;102516.97;5059312;28;20730;-71
2022/07/18 06:00:12;;;;;;;10.47;6.37;;;;;;;16.09;82.27;102513.53;5055327;28;20212;-71
2022/07/18 06:02:38;;;;;;;8.63;6.50;;;;;;;16.06;82.69;102505.72;5066465;28;20535;-71
2022/07/18 06:05:06;;;;;;;8.13;6.47;;;;;;;16.04;82.66;102504.81;5052412;28;20272;-71
2022/07/18 06:07:31;;;;;;;10.20;6.20;;;;;;;16.04;82.87;102512.56;5065990;28;20256;-71
2022/07/18 06:09:57;;;;;;;8.87;7.27;;;;;;;16.13;82.88;102509.31;5065355;28;20209;-71
2022/07/18 06:12:22;;;;;;;6.80;6.10;;;;;;;16.19;82.57;102512.91;5062041;28;20648;-71
2022/07/18 06:14:48;;;;;;;12.30;6.77;;;;;;;16.34;82.43;102509.81;5061530;28;20212;-71
2022/07/18 06:17:13;;;;;;;8.53;6.63;;;;;;;16.63;81.22;102513.94;5069966;28;20201;-71
2022/07/18 06:19:41;;;;;;;9.30;5.83;;;;;;;16.69;80.79;102520.13;5052202;28;20202;-71
2022/07/18 06:22:07;;;;;;;7.63;6.73;;;;;;;16.48;81.03;102517.06;5052035;28;20178;-71
2022/07/18 06:24:33;;;;;;;9.30;6.73;;;;;;;16.56;81.10;102515.53;5057000;28;20268;-71
2022/07/18 06:26:58;;;;;;;8.03;6.43;;;;;;;16.72;80.53;102515.00;5069171;28;20285;-71
2022/07/18 06:29:23;;;;;;;7.80;6.23;;;;;;;16.74;80.26;102515.94;5085078;28;20699;-71
2022/07/18 06:31:49;;;;;;;7.27;6.43;;;;;;;17.01;79.97;102510.44;5071488;28;20181;-72
2022/07/18 06:34:14;;;;;;;8.83;6.50;;;;;;;17.40;78.53;102500.88;5062166;28;20252;-72
2022/07/18 06:36:40;;;;;;;9.50;6.23;;;;;;;17.62;77.89;102498.69;5053258;28;20193;-71
2022/07/18 06:39:10;;;;;;;9.13;6.70;;;;;;;17.73;77.49;102496.28;5069635;28;20205;-72
2022/07/18 06:41:38;;;;;;;7.80;5.87;;;;;;;17.86;75.75;102491.31;5071476;28;20640;-71
2022/07/18 06:44:06;;;;;;;7.43;5.77;;;;;;;18.14;75.25;102487.47;5053190;28;20185;-70
2022/07/18 06:46:31;;;;;;;6.43;5.40;;;;;;;18.34;75.34;102489.50;5048932;28;20312;-70
2022/07/18 06:48:57;;;;;;;8.77;6.13;;;;;;;18.41;74.89;102478.38;5055274;28;21069;-72
2022/07/18 06:51:24;;;;;;;8.67;5.80;;;;;;;18.53;74.21;102483.72;5113625;27;20196;-70
2022/07/18 06:53:51;;;;;;;7.93;5.97;;;;;;;18.69;73.89;102493.44;5082717;28;20191;-72
2022/07/18 06:56:16;;;;;;;6.60;5.47;;;;;;;18.75;73.58;102487.47;5089643;28;20209;-72
2022/07/18 06:58:42;;;;;;;7.40;5.20;;;;;;;18.81;74.07;102490.13;5057871;28;20296;-71
2022/07/18 07:01:08;;;;;;;8.47;5.43;;;;;;;19.05;73.50;102480.91;5092980;28;20215;-72
2022/07/18 07:03:33;;;;;;;6.87;4.67;;;;;;;19.48;71.31;102475.31;5081240;28;20188;-71
2022/07/18 07:05:58;;;;;;;5.20;4.57;;;;;;;19.44;71.09;102467.50;5055405;28;20589;-72
2022/07/18 07:08:24;;;;;;;6.70;5.00;;;;;;;19.31;71.18;102466.50;5055652;28;20235;-72
2022/07/18 07:10:49;;;;;;;7.27;4.70;;;;;;;19.34;71.98;102466.50;5071019;28;20188;-72
2022/07/18 07:13:15;;;;;;;5.90;4.80;;;;;;;19.31;72.04;102465.63;5052010;28;20191;-72
2022/07/18 07:15:42;;;;;;;5.80;4.67;;;;;;;19.49;71.81;102466.66;5051418;28;20297;-72
2022/07/18 07:18:08;;;;;;;7.13;4.10;;;;;;;19.53;71.21;102459.78;5052247;28;20268;-71
2022/07/18 07:20:34;;;;;;;5.73;4.97;;;;;;;19.54;71.09;102465.00;5072587;28;20232;-73
2022/07/18 07:23:04;;;;;;;4.43;3.70;;;;;;;19.80;69.87;102465.22;5062685;28;20264;-73
2022/07/18 07:25:30;;;;;;;5.93;3.80;;;;;;;19.79;69.65;102472.13;5062705;28;20185;-73
2022/07/18 07:27:57;;;;;;;7.50;4.13;;;;;;;19.74;67.27;102470.34;5071608;28;20213;-73
2022/07/18 07:30:23;;;;;;;5.50;3.97;;;;;;;20.20;65.67;102475.94;5059343;28;20254;-73
2022/07/18 07:32:50;;;;;;;4.43;3.87;;;;;;;20.74;65.16;102459.72;5086780;28;20406;-73
2022/07/18 07:35:18;;;;;;;5.03;3.57;;;;;;;21.22;63.87;102459.88;5056285;28;20679;-73
2022/07/18 07:37:51;;;;;;;4.30;3.40;;;;;;;21.37;61.49;102450.34;5087372;28;20211;-73
2022/07/18 07:40:17;;;;;;;6.43;4.03;;;;;;;21.69;60.69;102447.78;5067089;28;20208;-73
2022/07/18 07:42:43;;;;;;;4.67;3.47;;;;;;;21.84;59.29;102445.16;5054116;28;20184;-74
2022/07/18 07:45:10;;;;;;;4.43;3.23;;;;;;;21.91;58.25;102452.09;5070207;28;20551;-73
2022/07/18 07:47:36;;;;;;;6.83;3.97;;;;;;;22.06;57.32;102447.72;5071166;28;20267;-73
2022/07/18 07:50:04;;;;;;;5.43;3.90;;;;;;;22.35;57.64;102451.13;5071312;28;20215;-73
2022/07/18 07:52:29;;;;;;;4.70;4.07;;;;;;;22.11;57.95;102445.13;5088235;28;20258;-74
2022/07/18 07:54:55;;;;;;;4.33;3.70;;;;;;;22.17;55.39;102453.81;5094946;28;20212;-73
2022/07/18 07:57:21;;;;;;;5.10;3.97;;;;;;;22.26;53.49;102451.16;5085227;28;20276;-74
2022/07/18 07:59:47;;;;;;;6.60;4.20;;;;;;;22.46;53.58;102447.69;5069725;28;20204;-73
2022/07/18 08:02:13;;;;;;;5.00;4.27;;;;;;;22.51;51.50;102443.31;5081317;28;20682;-73
2022/07/18 08:04:38;;;;;;;5.57;4.17;;;;;;;22.94;51.27;102439.59;5105860;28;20914;-73
2022/07/18 08:07:04;;;;;;;6.17;4.87;;;;;;;22.81;50.04;102435.31;5090023;28;20276;-73
2022/07/18 08:09:30;;;;;;;6.07;4.47;;;;;;;22.53;50.78;102437.19;5089762;28;20208;-73
2022/07/18 08:11:55;;;;;;;5.87;4.67;;;;;;;22.43;51.06;102441.53;5089765;28;20195;-73
2022/07/18 08:14:21;;;;;;;7.87;4.47;;;;;;;22.75;50.62;102436.19;5088802;28;20302;-73
2022/07/18 08:16:46;;;;;;;5.43;4.50;;;;;;;23.10;50.98;102430.78;5089546;28;20199;-73
2022/07/18 08:19:11;;;;;;;5.43;4.50;;;;;;;23.51;49.44;102419.19;5069713;28;20690;-74
2022/07/18 08:21:37;;;;;;;8.60;5.47;;;;;;;23.53;47.36;102411.31;5069547;28;20185;-73
2022/07/18 08:24:03;;;;;;;5.60;5.00;;;;;;;23.88;47.89;102409.22;5069279;28;20247;-74
2022/07/18 08:26:28;;;;;;;8.83;6.10;;;;;;;24.02;47.81;102407.38;5084631;28;20189;-73
2022/07/18 08:28:54;;;;;;;7.47;5.40;;;;;;;23.72;48.20;102402.41;5069732;28;20238;-74
2022/07/18 08:31:19;;;;;;;5.97;5.33;;;;;;;23.55;47.23;102399.09;5041033;28;20263;-73
2022/07/18 08:33:45;;;;;;;7.70;6.40;;;;;;;23.45;47.41;102400.06;5048557;28;20193;-74
2022/07/18 08:36:11;;;;;;;7.63;6.33;;;;;;;23.85;47.66;102401.44;5049543;28;20263;-73
2022/07/18 08:38:37;;;;;;;7.97;6.40;;;;;;;24.05;44.56;102400.38;5049096;28;20248;-74
2022/07/18 08:41:04;;;;;;;8.97;6.40;;;;;;;23.98;44.65;102409.16;5088016;28;20189;-74
2022/07/18 08:43:29;;;;;;;7.20;5.80;;;;;;;24.01;45.80;102403.03;5089402;28;20195;-74
2022/07/18 08:46:02;;;;;;;7.13;5.77;;;;;;;24.61;45.87;102403.19;5089560;28;20172;-74
2022/07/18 08:48:28;;;;;;;7.87;5.77;;;;;;;24.69;44.08;102397.84;5089755;28;20659;-74
2022/07/18 08:50:54;;;;;;;8.25;6.32;;;;;;;24.69;43.99;102392.59;5089604;28;20779;-73
2022/07/18 08:53:20;;;;;;;7.28;5.72;;;;;;;24.73;45.02;102389.06;5079550;28;20279;-74
2022/07/18 08:55:46;;;;;;;6.70;5.75;;;;;;;24.73;42.00;102389.06;5069114;28;20204;-74
2022/07/18 08:58:14;;;;;;;9.50;6.20;;;;;;;24.82;44.04;102388.94;5068856;28;20682;-74
2022/07/18 09:00:40;;;;;;;7.22;5.80;;;;;;;24.56;44.87;102391.00;5075846;28;20663;-74
2022/07/18 09:03:07;;;;;;;8.63;5.82;;;;;;;24.72;42.85;102392.56;5076260;28;20246;-74
2022/07/18 09:05:33;;;;;;;7.32;5.90;;;;;;;24.78;42.76;102380.25;5068256;28;20767;-74
2022/07/18 09:08:07;;;;;;;8.15;6.32;;;;;;;24.92;42.83;102380.91;5068685;28;20180;-73
2022/07/18 09:10:47;;;;;;;8.88;6.43;;;;;;;24.90;41.29;102366.94;5067615;28;20192;-74
2022/07/18 09:13:12;;;;;;;9.10;6.50;;;;;;;25.28;42.04;102355.91;5067670;28;20217;-74
2022/07/18 09:16:09;;;;;;;7.68;6.15;;;;;;;25.24;42.69;102357.66;5069127;28;20680;-74
2022/07/18 09:18:43;;;;;;;8.30;6.28;;;;;;;25.39;42.87;102362.69;5068878;28;20248;-74
2022/07/18 09:21:18;;;;;;;8.23;5.57;;;;;;;25.93;42.15;102355.59;5069061;28;20561;-74
2022/07/18 09:23:48;;;;;;;7.47;5.68;;;;;;;25.85;41.18;102357.47;5069005;28;20640;-74
2022/07/18 09:26:36;;;;;;;6.93;5.63;;;;;;;25.34;42.33;102355.78;5071239;28;20189;-74
2022/07/18 09:29:03;;;;;;;5.97;5.20;;;;;;;25.72;42.01;102350.72;5071205;28;20763;-74
2022/07/18 09:31:28;;;;;;;6.72;5.35;;;;;;;25.90;41.47;102352.97;5073104;28;20220;-74
2022/07/18 09:33:56;;;;;;;6.30;5.10;;;;;;;26.25;40.51;102342.69;5072850;28;20209;-74
2022/07/18 09:36:22;;;;;;;6.03;5.00;;;;;;;26.42;41.28;102343.16;5072703;28;20177;-74
2022/07/18 09:38:47;;;;;;;6.00;5.05;;;;;;;26.23;41.13;102342.72;5073213;28;20234;-74
2022/07/18 09:41:13;;;;;;;6.30;4.97;;;;;;;26.43;40.14;102339.66;5086504;28;20293;-74
2022/07/18 09:43:39;;;;;;;5.70;4.97;;;;;;;27.16;40.75;102337.03;5076393;28;20725;-74
2022/07/18 09:46:06;;;;;;;6.88;4.75;;;;;;;26.98;40.28;102345.41;5071419;28;20667;-74
2022/07/18 09:48:32;;;;;;;6.60;5.10;;;;;;;27.07;40.31;102353.09;5072277;28;20216;-74
2022/07/18 09:51:05;;;;;;;5.47;4.93;;;;;;;27.34;39.51;102347.13;5072406;28;20285;-74
2022/07/18 09:53:38;;;;;;;5.38;4.88;;;;;;;27.52;40.48;102357.19;5083769;28;20224;-74
2022/07/18 09:56:06;;;;;;;5.72;4.32;;;;;;;26.99;39.61;102350.59;5092544;28;20205;-74
2022/07/18 09:58:38;;;;;;;5.50;4.60;;;;;;;27.48;40.16;102352.91;5092389;28;20208;-74
2022/07/18 10:01:07;;;;;;;5.45;4.80;;;;;;;27.62;39.83;102356.91;5074659;28;20200;-74
2022/07/18 10:03:33;;;;;;;5.65;4.78;;;;;;;28.00;38.47;102350.66;5078231;28;20534;-74
2022/07/18 10:06:00;;;;;;;6.15;5.20;;;;;;;27.83;39.24;102353.75;5071693;28;20177;-74
2022/07/18 10:08:31;;;;;;;5.80;4.70;;;;;;;28.10;39.71;102358.22;5071686;28;20201;-74
2022/07/18 10:10:59;;;;;;;6.95;5.22;;;;;;;28.20;37.86;102358.84;5072005;28;20181;-74
2022/07/18 10:13:28;;;;;;;7.05;5.55;;;;;;;28.78;38.40;102358.84;5071909;28;20242;-74
2022/07/18 10:15:53;;;;;;;7.43;5.20;;;;;;;28.95;37.94;102356.50;5071736;28;20337;-74
2022/07/18 10:18:21;;;;;;;6.78;5.03;;;;;;;29.05;37.60;102365.88;5071629;28;20245;-74
2022/07/18 10:21:02;;;;;;;8.45;5.10;;;;;;;29.15;37.37;102372.63;5071377;28;20677;-74
2022/07/18 10:23:39;;;;;;;6.30;5.45;;;;;;;29.05;37.76;102364.13;5071622;28;20181;-74
2022/07/18 10:26:12;;;;;;;9.88;5.13;;;;;;;29.03;36.74;102373.88;5071759;28;20180;-74
2022/07/18 10:28:59;;;;;;;9.73;5.93;;;;;;;29.09;36.49;102365.75;5069976;28;20722;-74
2022/07/18 10:31:39;;;;;;;8.15;5.10;;;;;;;28.81;37.69;102367.53;5051666;28;20189;-74
2022/07/18 10:34:07;;;;;;;7.05;4.97;;;;;;;28.88;37.96;102363.75;5051462;28;20559;-74
2022/07/18 10:36:35;;;;;;;6.22;4.93;;;;;;;28.88;38.63;102363.75;5049398;28;20221;-74
2022/07/18 10:39:13;;;;;;;7.85;5.72;;;;;;;29.00;39.38;102354.63;5055525;28;20296;-74
2022/07/18 10:41:38;;;;;;;9.05;4.95;;;;;;;29.08;38.49;102355.25;5091653;28;20165;-74
2022/07/18 10:44:29;;;;;;;9.93;5.35;;;;;;;29.15;37.03;102354.97;5091774;28;20604;-74
2022/07/18 10:47:03;;;;;;;8.85;5.45;;;;;;;28.54;36.60;102362.22;5079946;28;20232;-74
2022/07/18 10:49:47;;;;;;;8.15;5.35;;;;;;;29.04;35.91;102351.84;5071486;28;20204;-74
2022/07/18 10:52:28;;;;;;;6.35;5.75;;;;;;;29.40;33.25;102350.63;5071835;28;20180;-74
2022/07/18 10:55:08;;;;;;;7.38;5.88;;;;;;;29.46;34.76;102345.13;5091265;28;20278;-74
2022/07/18 10:57:37;;;;;;;7.30;5.45;;;;;;;29.31;34.51;102344.78;5075662;28;20238;-74
2022/07/18 11:00:13;;;;;;;9.35;5.60;;;;;;;29.39;34.81;102311.91;5073093;28;20220;-75
2022/07/18 11:02:46;;;;;;;6.10;5.10;;;;;;;29.18;34.51;102307.38;5083825;28;20731;-74
2022/07/18 11:05:26;;;;;;;6.45;5.15;;;;;;;29.53;34.96;102322.00;5081395;28;20188;-74
2022/07/18 11:08:01;;;;;;;7.13;5.13;;;;;;;30.13;35.70;102327.75;5052557;28;20204;-73
2022/07/18 11:10:46;;;;;;;7.43;4.82;;;;;;;30.14;34.40;102324.19;5071081;28;20200;-74
2022/07/18 11:13:30;;;;;;;8.63;4.80;;;;;;;29.85;34.58;102322.56;5060455;28;20201;-74
2022/07/18 11:16:05;;;;;;;6.20;5.13;;;;;;;30.71;34.42;102319.28;5070454;28;20258;-74
2022/07/18 11:18:32;;;;;;;7.70;5.13;;;;;;;30.96;32.76;102311.22;5069234;28;20208;-74
2022/07/18 11:20:58;;;;;;;6.05;4.63;;;;;;;31.44;33.71;102298.56;5070540;28;20185;-74
2022/07/18 11:23:25;;;;;;;5.68;5.15;;;;;;;31.28;32.91;102297.50;5071124;28;20181;-74
2022/07/18 11:25:56;;;;;;;5.85;4.63;;;;;;;30.89;34.19;102297.38;5069604;28;20223;-74
2022/07/18 11:28:22;;;;;;;5.65;4.78;;;;;;;31.10;33.81;102301.78;5070600;28;20632;-74